Time;durP1;ratioP1;P1;durP2;ratioP2;P2;SDS_P1;SDS_P2;PMS_P1;PMS_P2;Temp;Humidity;BMP_temperature;BMP_pressure;BME280_temperature;BME280_humidity;BME280_pressure;Samples;Min_cycle;Max_cycle;Signal;HPM_P1;HPM_P2
2023/07/02 00:01:19;;;;;;;1.30;0.90;;;20.00;74.20;;;;;;5028003;28;20051;-62
2023/07/02 00:03:45;;;;;;;1.27;0.98;;;20.00;74.20;;;;;;5026404;28;20048;-62
2023/07/02 00:06:11;;;;;;;0.98;0.82;;;20.00;74.20;;;;;;5025307;28;20053;-62
2023/07/02 00:08:36;;;;;;;4.88;1.75;;;20.00;74.40;;;;;;5024459;28;20053;-64
2023/07/02 00:11:02;;;;;;;3.45;1.60;;;20.00;74.40;;;;;;5027691;28;20128;-62
2023/07/02 00:13:28;;;;;;;4.72;1.25;;;19.90;74.80;;;;;;5025042;28;20028;-62
2023/07/02 00:15:53;;;;;;;2.03;1.23;;;19.90;74.90;;;;;;5027724;28;20022;-61
2023/07/02 00:18:19;;;;;;;6.38;1.88;;;19.90;75.00;;;;;;5008334;28;20057;-62
2023/07/02 00:20:45;;;;;;;3.05;1.98;;;19.90;75.10;;;;;;5027712;28;20032;-62
2023/07/02 00:23:11;;;;;;;3.53;1.42;;;19.90;75.10;;;;;;5025083;28;20468;-62
2023/07/02 00:25:37;;;;;;;4.60;2.13;;;19.90;75.20;;;;;;5026779;28;20159;-62
2023/07/02 00:28:03;;;;;;;1.85;1.20;;;19.80;75.30;;;;;;5026904;28;20034;-62
2023/07/02 00:30:29;;;;;;;4.28;1.90;;;19.80;75.40;;;;;;5025944;28;20029;-63
2023/07/02 00:32:55;;;;;;;3.55;2.13;;;19.90;75.40;;;;;;5026833;28;20025;-62
2023/07/02 00:35:21;;;;;;;3.53;1.83;;;19.80;75.50;;;;;;5028673;28;20025;-62
2023/07/02 00:37:48;;;;;;;6.75;1.88;;;19.80;75.60;;;;;;5030729;28;20053;-62
2023/07/02 00:40:14;;;;;;;2.17;1.50;;;19.80;75.60;;;;;;5031401;28;20155;-64
2023/07/02 00:42:40;;;;;;;2.22;1.63;;;19.80;75.40;;;;;;5030050;28;21892;-62
2023/07/02 00:45:06;;;;;;;5.57;1.48;;;19.90;75.40;;;;;;5028737;28;20030;-63
2023/07/02 00:47:35;;;;;;;2.65;1.40;;;19.90;75.50;;;;;;5010789;28;20042;-63
2023/07/02 00:50:02;;;;;;;3.33;2.63;;;19.90;75.80;;;;;;5027925;28;20074;-63
2023/07/02 00:52:28;;;;;;;4.78;1.65;;;19.90;76.10;;;;;;5029726;28;20029;-62
2023/07/02 00:54:54;;;;;;;5.85;2.38;;;19.80;76.40;;;;;;5030754;28;20972;-63
2023/07/02 00:57:20;;;;;;;4.32;1.73;;;19.80;76.20;;;;;;5028972;28;20053;-63
2023/07/02 00:59:46;;;;;;;2.95;1.30;;;19.70;75.70;;;;;;5030857;28;20025;-63
2023/07/02 01:02:12;;;;;;;4.18;2.08;;;19.60;75.20;;;;;;5030652;28;20057;-63
2023/07/02 01:04:38;;;;;;;3.88;1.42;;;19.50;75.00;;;;;;5030099;28;20105;-63
2023/07/02 01:07:11;;;;;;;4.38;1.63;;;19.50;74.80;;;;;;5029503;28;20037;-63
2023/07/02 01:09:36;;;;;;;;;;;19.40;74.20;;;;;;5029317;28;20057;-63
2023/07/02 01:12:08;;;;;;;2.63;1.50;;;19.30;74.40;;;;;;5029791;28;19951;-63
2023/07/02 01:14:54;;;;;;;;;;;19.10;74.60;;;;;;5031199;28;20068;-62
2023/07/02 01:17:22;;;;;;;5.50;1.88;;;19.10;74.90;;;;;;5027261;28;19986;-64
2023/07/02 01:19:58;;;;;;;5.80;2.22;;;19.00;75.10;;;;;;5030448;28;20017;-63
2023/07/02 01:22:26;;;;;;;4.13;1.70;;;19.00;75.20;;;;;;5030635;28;20061;-63
2023/07/02 01:24:53;;;;;;;4.78;1.58;;;18.90;75.30;;;;;;5030335;28;20083;-63
2023/07/02 01:27:19;;;;;;;3.78;1.90;;;18.80;75.40;;;;;;5028157;28;20470;-63
2023/07/02 01:29:46;;;;;;;2.72;2.35;;;18.80;75.40;;;;;;5030402;28;20030;-63
2023/07/02 01:32:15;;;;;;;4.55;1.98;;;18.70;75.40;;;;;;5030304;28;20029;-63
2023/07/02 01:34:43;;;;;;;6.97;1.50;;;18.70;75.50;;;;;;5030556;28;20064;-63
2023/07/02 01:37:09;;;;;;;6.68;1.85;;;18.70;75.50;;;;;;5028688;28;20472;-63
2023/07/02 01:39:35;;;;;;;4.32;1.88;;;18.60;75.60;;;;;;5029878;28;20029;-63
2023/07/02 01:42:11;;;;;;;1.95;1.48;;;18.60;75.70;;;;;;5029704;28;20429;-63
2023/07/02 01:44:37;;;;;;;3.10;1.60;;;18.60;75.50;;;;;;5029480;28;20030;-63
2023/07/02 01:47:04;;;;;;;2.10;1.50;;;18.50;75.60;;;;;;5028110;28;20104;-63
2023/07/02 01:49:29;;;;;;;4.35;2.17;;;18.50;75.70;;;;;;5028951;28;20033;-63
2023/07/02 01:51:56;;;;;;;11.32;1.83;;;18.50;75.70;;;;;;5012322;28;20041;-62
2023/07/02 01:54:26;;;;;;;3.70;1.73;;;18.50;75.50;;;;;;5030453;28;20404;-62
2023/07/02 01:56:53;;;;;;;2.75;2.00;;;18.50;75.60;;;;;;5029693;28;20520;-62
2023/07/02 01:59:18;;;;;;;5.50;1.55;;;18.40;75.60;;;;;;5028574;28;20026;-62
2023/07/02 02:01:44;;;;;;;3.38;1.30;;;18.40;76.10;;;;;;5030168;28;20041;-62
2023/07/02 02:04:10;;;;;;;3.70;2.10;;;18.30;75.50;;;;;;5029083;28;20021;-62
2023/07/02 02:06:38;;;;;;;8.25;2.08;;;18.40;75.50;;;;;;5030087;28;20028;-62
2023/07/02 02:09:04;;;;;;;4.45;1.45;;;18.40;75.40;;;;;;5028144;28;20041;-62
2023/07/02 02:11:34;;;;;;;4.20;1.80;;;18.30;75.40;;;;;;5028839;28;20039;-62
2023/07/02 02:14:02;;;;;;;3.72;1.75;;;18.30;75.40;;;;;;5029837;28;20496;-62
2023/07/02 02:16:28;;;;;;;2.85;1.67;;;18.30;75.50;;;;;;5012093;28;20033;-62
2023/07/02 02:18:54;;;;;;;2.50;1.42;;;18.30;75.50;;;;;;5027602;28;20049;-62
2023/07/02 02:21:20;;;;;;;3.35;1.40;;;18.30;75.50;;;;;;5029185;28;20025;-62
2023/07/02 02:23:47;;;;;;;2.67;1.63;;;18.30;75.60;;;;;;5011846;28;20473;-62
2023/07/02 02:26:13;;;;;;;4.50;1.55;;;18.30;75.60;;;;;;5029199;28;20560;-62
2023/07/02 02:28:39;;;;;;;3.45;2.03;;;18.20;75.50;;;;;;5028144;28;20032;-62
2023/07/02 02:31:05;;;;;;;4.93;2.20;;;18.10;75.60;;;;;;5028574;28;20081;-62
2023/07/02 02:33:32;;;;;;;5.10;1.90;;;18.00;75.90;;;;;;5028294;28;20036;-62
2023/07/02 02:35:58;;;;;;;3.10;1.52;;;18.00;76.00;;;;;;5029327;28;20404;-62
2023/07/02 02:38:24;;;;;;;8.00;2.10;;;17.90;76.10;;;;;;5026427;28;20030;-62
2023/07/02 02:40:50;;;;;;;5.30;2.97;;;17.90;76.20;;;;;;5026614;28;20512;-62
2023/07/02 02:43:17;;;;;;;2.22;1.65;;;17.90;76.30;;;;;;5025250;28;20036;-62
2023/07/02 02:45:42;;;;;;;1.88;1.30;;;17.80;76.30;;;;;;5007641;28;20140;-62
2023/07/02 02:48:08;;;;;;;4.68;1.65;;;17.80;76.40;;;;;;5023985;28;20042;-62
2023/07/02 02:50:34;;;;;;;3.17;1.83;;;17.80;76.40;;;;;;5025706;28;20044;-62
2023/07/02 02:52:59;;;;;;;4.50;1.73;;;17.80;76.40;;;;;;5025993;28;21782;-62
2023/07/02 02:55:26;;;;;;;2.88;1.45;;;17.80;76.40;;;;;;5027616;28;20049;-62
2023/07/02 02:57:52;;;;;;;3.90;2.22;;;17.80;76.40;;;;;;5006713;28;20036;-62
2023/07/02 03:00:17;;;;;;;2.63;1.50;;;17.80;76.50;;;;;;5025700;28;20758;-63
2023/07/02 03:02:43;;;;;;;2.13;1.38;;;17.80;76.40;;;;;;5010910;28;20121;-63
2023/07/02 03:05:09;;;;;;;3.30;1.80;;;17.80;77.10;;;;;;5010760;28;20062;-62
2023/07/02 03:07:35;;;;;;;4.18;2.30;;;17.80;76.50;;;;;;5025335;28;20056;-63
2023/07/02 03:10:01;;;;;;;5.20;2.03;;;17.80;76.60;;;;;;5007698;28;20140;-63
2023/07/02 03:12:27;;;;;;;4.07;2.33;;;17.80;76.60;;;;;;5010511;28;20484;-63
2023/07/02 03:14:55;;;;;;;4.80;2.15;;;17.80;76.70;;;;;;5028547;28;20079;-63
2023/07/02 03:17:21;;;;;;;4.07;2.33;;;17.80;76.70;;;;;;5027799;28;20061;-63
2023/07/02 03:19:47;;;;;;;4.85;2.35;;;17.80;76.60;;;;;;5025178;28;20026;-63
2023/07/02 03:22:12;;;;;;;7.05;2.45;;;17.80;77.20;;;;;;5025315;28;20033;-63
2023/07/02 03:24:38;;;;;;;4.32;1.75;;;17.80;76.60;;;;;;5025166;28;20048;-63
2023/07/02 03:27:04;;;;;;;4.28;1.90;;;17.80;76.70;;;;;;5027542;28;20025;-63
2023/07/02 03:29:30;;;;;;;2.70;1.92;;;17.80;76.60;;;;;;5007567;28;20092;-63
2023/07/02 03:31:57;;;;;;;6.97;2.53;;;17.80;76.60;;;;;;5025405;28;20033;-63
2023/07/02 03:34:23;;;;;;;3.78;1.55;;;17.80;76.60;;;;;;5025966;28;20047;-63
2023/07/02 03:36:49;;;;;;;4.28;1.83;;;17.80;76.40;;;;;;5026259;28;20043;-63
2023/07/02 03:39:16;;;;;;;4.05;2.03;;;17.80;76.40;;;;;;5025189;28;20473;-63
2023/07/02 03:41:41;;;;;;;3.17;1.80;;;17.70;76.20;;;;;;5026392;28;20068;-63
2023/07/02 03:44:07;;;;;;;4.15;1.77;;;17.70;76.20;;;;;;5027053;28;20057;-63
2023/07/02 03:46:33;;;;;;;4.35;1.90;;;17.70;76.10;;;;;;5026128;28;20032;-63
2023/07/02 03:48:59;;;;;;;4.80;2.13;;;17.70;76.10;;;;;;5025224;28;20022;-62
2023/07/02 03:51:24;;;;;;;1.85;1.65;;;17.60;76.00;;;;;;5025692;28;20021;-62
2023/07/02 03:53:50;;;;;;;3.83;2.13;;;17.70;76.00;;;;;;5008017;28;20064;-62
2023/07/02 03:56:16;;;;;;;2.58;1.70;;;17.70;76.00;;;;;;5008722;28;20376;-63
2023/07/02 03:58:42;;;;;;;4.85;1.77;;;17.70;76.00;;;;;;5026856;28;20043;-63
2023/07/02 04:01:07;;;;;;;4.18;2.38;;;17.80;76.00;;;;;;5025971;28;20022;-63
2023/07/02 04:03:33;;;;;;;6.05;2.35;;;17.70;75.90;;;;;;5025076;28;20048;-63
2023/07/02 04:05:59;;;;;;;5.07;2.40;;;17.80;75.90;;;;;;5025441;28;20033;-63
2023/07/02 04:08:25;;;;;;;10.32;3.17;;;17.80;76.00;;;;;;5004898;28;20046;-63
2023/07/02 04:10:51;;;;;;;4.03;1.48;;;17.70;75.90;;;;;;5004987;28;20057;-63
2023/07/02 04:13:16;;;;;;;4.78;2.30;;;17.70;76.10;;;;;;5006288;28;20393;-63
2023/07/02 04:15:42;;;;;;;5.60;1.95;;;17.70;76.00;;;;;;5006248;28;20026;-62
2023/07/02 04:18:08;;;;;;;5.53;1.85;;;17.70;75.80;;;;;;5006714;28;20046;-63
2023/07/02 04:20:34;;;;;;;8.18;2.30;;;17.60;76.40;;;;;;5002500;28;20407;-63
2023/07/02 04:22:59;;;;;;;4.32;1.90;;;17.60;75.80;;;;;;5003456;28;20065;-64
2023/07/02 04:25:25;;;;;;;7.88;1.48;;;17.60;75.80;;;;;;5003586;28;20022;-62
2023/07/02 04:27:56;;;;;;;5.90;1.80;;;17.70;75.80;;;;;;5003494;28;20460;-63
2023/07/02 04:30:21;;;;;;;5.50;1.88;;;17.70;75.60;;;;;;5004752;28;21964;-62
2023/07/02 04:32:47;;;;;;;2.75;1.65;;;17.70;75.60;;;;;;4988509;28;20026;-63
2023/07/02 04:35:14;;;;;;;8.77;2.20;;;17.70;75.50;;;;;;5005408;28;20176;-63
2023/07/02 04:37:40;;;;;;;4.68;2.45;;;17.70;75.00;;;;;;5006070;28;20358;-62
2023/07/02 04:40:09;;;;;;;4.72;2.20;;;17.70;75.10;;;;;;5004937;28;20044;-62
2023/07/02 04:42:46;;;;;;;4.50;2.72;;;17.70;74.90;;;;;;5005046;28;20117;-62
2023/07/02 04:45:14;;;;;;;6.57;3.03;;;17.70;74.70;;;;;;5003613;28;22012;-63
2023/07/02 04:47:43;;;;;;;6.63;2.38;;;17.70;74.60;;;;;;5006604;28;20626;-63
2023/07/02 04:50:10;;;;;;;5.93;2.40;;;17.70;74.40;;;;;;5007163;28;20038;-63
2023/07/02 04:52:35;;;;;;;4.53;2.42;;;17.70;74.10;;;;;;4983276;28;20053;-62
2023/07/02 04:55:02;;;;;;;4.18;2.53;;;17.70;73.80;;;;;;5006494;28;20034;-63
2023/07/02 04:57:28;;;;;;;6.53;1.83;;;17.70;73.70;;;;;;5006110;28;20037;-62
2023/07/02 04:59:54;;;;;;;4.03;1.65;;;17.80;73.60;;;;;;5004202;28;20033;-62
2023/07/02 05:02:20;;;;;;;3.58;1.88;;;17.80;73.50;;;;;;5005086;28;20030;-63
2023/07/02 05:04:46;;;;;;;4.65;2.05;;;17.90;73.20;;;;;;5005805;28;20113;-63
2023/07/02 05:07:11;;;;;;;6.07;2.25;;;17.90;73.10;;;;;;5007870;28;20061;-63
2023/07/02 05:09:37;;;;;;;3.08;1.88;;;18.00;72.50;;;;;;5022375;28;20037;-63
2023/07/02 05:12:03;;;;;;;7.65;2.17;;;18.00;72.60;;;;;;5026364;28;20083;-63
2023/07/02 05:14:29;;;;;;;3.00;2.40;;;18.10;72.70;;;;;;5026273;28;20033;-63
2023/07/02 05:16:54;;;;;;;6.97;2.55;;;18.10;71.80;;;;;;5024379;28;20550;-62
2023/07/02 05:19:20;;;;;;;4.88;2.22;;;18.10;72.20;;;;;;5026193;28;20049;-63
2023/07/02 05:21:46;;;;;;;9.80;2.22;;;18.10;72.30;;;;;;5026365;28;20029;-62
2023/07/02 05:24:11;;;;;;;5.05;2.25;;;18.10;72.30;;;;;;5030513;28;20396;-63
2023/07/02 05:26:37;;;;;;;11.38;3.38;;;18.20;72.20;;;;;;5028265;28;20037;-63
2023/07/02 05:29:03;;;;;;;3.35;1.70;;;18.20;71.60;;;;;;5010376;28;20029;-63
2023/07/02 05:31:28;;;;;;;6.38;1.90;;;18.20;71.50;;;;;;5025469;28;20026;-63
2023/07/02 05:33:54;;;;;;;10.55;2.63;;;18.20;71.30;;;;;;5011088;28;20044;-63
2023/07/02 05:36:21;;;;;;;4.38;1.58;;;18.30;71.20;;;;;;5025837;28;20060;-63
2023/07/02 05:38:47;;;;;;;5.93;2.63;;;18.30;71.10;;;;;;5029377;28;20047;-63
2023/07/02 05:41:18;;;;;;;7.30;3.30;;;18.30;70.70;;;;;;5024149;28;20118;-62
2023/07/02 05:43:44;;;;;;;6.22;2.10;;;18.40;71.30;;;;;;5029922;28;20034;-62
2023/07/02 05:46:10;;;;;;;7.03;2.47;;;18.50;70.60;;;;;;5028530;28;20052;-62
2023/07/02 05:48:35;;;;;;;4.65;2.65;;;18.50;70.10;;;;;;5020375;28;20484;-62
2023/07/02 05:51:02;;;;;;;8.13;2.40;;;18.60;69.80;;;;;;5023366;28;20075;-62
2023/07/02 05:53:27;;;;;;;4.82;3.05;;;18.70;69.80;;;;;;5026461;28;20045;-62
2023/07/02 05:55:53;;;;;;;5.90;2.88;;;18.80;68.90;;;;;;5023773;28;20087;-63
2023/07/02 05:58:19;;;;;;;10.23;2.00;;;18.80;68.70;;;;;;5028402;28;20611;-59
2023/07/02 06:00:49;;;;;;;2.97;2.00;;;18.80;68.60;;;;;;5026886;28;20022;-59
2023/07/02 06:03:19;;;;;;;8.45;3.28;;;18.90;68.40;;;;;;5023611;28;20106;-59
2023/07/02 06:05:47;;;;;;;9.00;2.65;;;19.00;68.30;;;;;;5005175;28;20029;-61
2023/07/02 06:08:13;;;;;;;5.05;2.47;;;19.00;67.70;;;;;;5022534;28;20450;-60
2023/07/02 06:10:39;;;;;;;6.22;2.25;;;19.00;67.50;;;;;;5028119;28;20033;-66
2023/07/02 06:13:04;;;;;;;8.05;3.10;;;19.00;67.60;;;;;;5011076;28;20049;-65
2023/07/02 06:15:31;;;;;;;5.40;2.25;;;19.10;67.70;;;;;;5024659;28;20187;-65
2023/07/02 06:17:56;;;;;;;4.82;2.10;;;19.10;67.00;;;;;;5027416;28;20030;-65
2023/07/02 06:20:22;;;;;;;5.70;2.58;;;19.20;67.30;;;;;;5025847;28;20517;-64
2023/07/02 06:22:48;;;;;;;5.53;3.08;;;19.20;66.70;;;;;;5027141;28;20071;-64
2023/07/02 06:25:14;;;;;;;6.30;2.55;;;19.20;66.30;;;;;;5026091;28;20066;-65
2023/07/02 06:27:39;;;;;;;3.17;2.00;;;19.20;66.10;;;;;;5026943;28;20075;-64
2023/07/02 06:30:06;;;;;;;5.10;2.55;;;19.20;66.30;;;;;;5025555;28;20460;-60
2023/07/02 06:32:32;;;;;;;12.57;2.72;;;19.20;65.90;;;;;;5025529;28;20474;-60
2023/07/02 06:34:58;;;;;;;5.65;1.90;;;19.20;65.70;;;;;;5025810;28;20029;-60
2023/07/02 06:37:23;;;;;;;4.45;1.73;;;19.20;65.70;;;;;;5021721;28;20107;-65
2023/07/02 06:39:49;;;;;;;5.40;2.40;;;19.10;65.70;;;;;;5026927;28;20025;-64
2023/07/02 06:42:15;;;;;;;6.97;1.65;;;19.10;65.70;;;;;;5025808;28;20546;-62
2023/07/02 06:44:41;;;;;;;3.05;1.80;;;19.10;65.30;;;;;;5022591;28;20065;-62
2023/07/02 06:47:07;;;;;;;6.60;2.72;;;19.10;65.50;;;;;;5021456;28;20045;-62
2023/07/02 06:49:33;;;;;;;5.68;2.80;;;19.20;65.40;;;;;;5003948;28;20435;-63
2023/07/02 06:52:00;;;;;;;3.38;1.70;;;19.10;65.00;;;;;;5022207;28;20027;-62
2023/07/02 06:54:26;;;;;;;7.57;2.72;;;19.20;65.00;;;;;;5024991;28;20030;-62
2023/07/02 06:56:51;;;;;;;5.10;2.22;;;19.20;64.80;;;;;;5021211;28;20440;-63
2023/07/02 06:59:22;;;;;;;6.68;3.17;;;19.10;64.70;;;;;;5007435;28;20033;-65
2023/07/02 07:01:47;;;;;;;9.65;2.58;;;19.10;64.70;;;;;;5023078;28;20416;-64
2023/07/02 07:04:13;;;;;;;6.97;3.20;;;19.10;64.40;;;;;;5005620;28;20017;-64
2023/07/02 07:06:39;;;;;;;4.55;2.53;;;19.10;64.40;;;;;;5021885;28;20083;-63
2023/07/02 07:09:04;;;;;;;4.70;1.95;;;19.20;64.80;;;;;;4998696;28;20050;-65
2023/07/02 07:11:30;;;;;;;6.88;3.10;;;19.30;64.50;;;;;;5005784;28;20367;-65
2023/07/02 07:13:56;;;;;;;9.45;2.95;;;19.40;63.60;;;;;;5002983;28;20045;-64
2023/07/02 07:16:22;;;;;;;6.65;2.85;;;19.50;63.20;;;;;;4984282;28;20034;-64
2023/07/02 07:18:48;;;;;;;8.60;2.92;;;19.50;62.70;;;;;;5004307;28;20512;-64
2023/07/02 07:21:14;;;;;;;7.30;2.47;;;19.40;62.70;;;;;;5005111;28;20504;-64
2023/07/02 07:23:40;;;;;;;4.20;2.42;;;19.40;62.60;;;;;;5005826;28;20050;-64
2023/07/02 07:26:06;;;;;;;9.82;2.28;;;19.40;62.70;;;;;;5002493;28;20030;-64
2023/07/02 07:28:32;;;;;;;6.32;2.78;;;19.40;63.00;;;;;;5004274;28;20030;-63
2023/07/02 07:30:57;;;;;;;11.27;3.25;;;19.40;62.40;;;;;;5001812;28;20034;-63
2023/07/02 07:33:23;;;;;;;5.03;1.52;;;19.40;62.80;;;;;;5003983;28;20037;-64
2023/07/02 07:35:49;;;;;;;5.07;2.47;;;19.40;63.20;;;;;;5003847;28;20022;-63
2023/07/02 07:38:15;;;;;;;3.55;1.65;;;19.50;62.80;;;;;;5003952;28;20446;-64
2023/07/02 07:40:41;;;;;;;4.28;2.35;;;19.50;63.00;;;;;;5002160;28;20151;-63
2023/07/02 07:43:06;;;;;;;5.97;1.88;;;19.50;62.60;;;;;;5003073;28;20034;-64
2023/07/02 07:45:33;;;;;;;5.43;1.73;;;19.60;62.30;;;;;;5004757;28;20033;-64
2023/07/02 07:47:59;;;;;;;4.90;1.83;;;19.70;62.20;;;;;;5004394;28;20026;-64
2023/07/02 07:50:25;;;;;;;4.00;2.03;;;19.90;62.50;;;;;;5005442;28;20041;-64
2023/07/02 07:52:51;;;;;;;5.03;2.28;;;20.10;61.20;;;;;;5006739;28;20424;-64
2023/07/02 07:55:17;;;;;;;4.68;2.53;;;20.20;61.20;;;;;;5004447;28;20038;-66
2023/07/02 07:57:42;;;;;;;4.18;1.33;;;20.30;60.70;;;;;;5005685;28;20042;-64
2023/07/02 08:00:12;;;;;;;5.75;2.00;;;20.40;61.00;;;;;;5004444;28;20061;-64
2023/07/02 08:02:38;;;;;;;4.07;1.80;;;20.60;60.90;;;;;;5005886;28;20625;-64
2023/07/02 08:05:04;;;;;;;9.00;2.95;;;20.70;59.90;;;;;;4999076;28;20022;-61
2023/07/02 08:07:31;;;;;;;5.28;1.70;;;20.50;59.60;;;;;;4998603;28;20030;-64
2023/07/02 08:09:57;;;;;;;5.85;2.75;;;20.40;60.00;;;;;;5009872;28;20112;-64
2023/07/02 08:12:22;;;;;;;5.13;2.28;;;20.40;60.00;;;;;;5019647;28;20120;-64
2023/07/02 08:14:49;;;;;;;6.07;2.65;;;20.50;60.00;;;;;;5007520;28;20030;-64
2023/07/02 08:17:15;;;;;;;3.75;1.77;;;20.50;59.10;;;;;;5019693;28;20413;-64
2023/07/02 08:19:40;;;;;;;4.75;2.30;;;20.50;59.60;;;;;;5026624;28;20033;-63
2023/07/02 08:22:06;;;;;;;5.32;2.58;;;20.60;59.90;;;;;;5023382;28;20029;-64
2023/07/02 08:24:32;;;;;;;3.42;1.92;;;20.80;59.70;;;;;;5025743;28;20518;-64
2023/07/02 08:26:58;;;;;;;4.70;2.17;;;20.80;57.90;;;;;;5007081;28;20076;-64
2023/07/02 08:29:24;;;;;;;6.45;2.10;;;20.80;57.90;;;;;;5024190;28;20400;-64
2023/07/02 08:31:50;;;;;;;3.88;2.17;;;20.80;56.60;;;;;;5024559;28;20025;-64
2023/07/02 08:34:16;;;;;;;3.08;2.00;;;20.90;56.80;;;;;;5005660;28;20037;-64
2023/07/02 08:36:43;;;;;;;6.88;2.08;;;21.10;55.80;;;;;;5024130;28;20472;-64
2023/07/02 08:39:09;;;;;;;3.55;1.90;;;21.10;55.70;;;;;;5024136;28;20463;-64
2023/07/02 08:41:45;;;;;;;3.72;1.92;;;21.00;53.50;;;;;;5024954;28;20033;-64
2023/07/02 08:44:21;;;;;;;5.15;2.03;;;20.80;53.60;;;;;;5020652;28;20026;-64
2023/07/02 08:46:50;;;;;;;4.07;1.50;;;20.60;54.20;;;;;;5025285;28;20384;-64
2023/07/02 08:49:16;;;;;;;2.42;1.10;;;20.50;54.50;;;;;;5005780;28;20109;-63
2023/07/02 08:51:44;;;;;;;2.72;1.55;;;20.50;54.90;;;;;;4989847;28;20380;-64
2023/07/02 08:54:10;;;;;;;3.42;1.70;;;20.50;54.80;;;;;;5021894;28;20133;-64
2023/07/02 08:56:36;;;;;;;4.50;1.48;;;20.70;54.40;;;;;;5027352;28;20120;-64
2023/07/02 08:59:01;;;;;;;3.00;1.55;;;20.80;53.80;;;;;;5025565;28;20473;-63
2023/07/02 09:01:27;;;;;;;2.70;1.25;;;20.90;53.40;;;;;;5028496;28;20026;-64
2023/07/02 09:04:02;;;;;;;5.22;2.08;;;21.10;53.60;;;;;;5026827;28;20778;-64
2023/07/02 09:06:28;;;;;;;3.03;1.38;;;21.10;52.80;;;;;;5026900;28;20400;-64
2023/07/02 09:09:02;;;;;;;3.53;1.63;;;21.10;54.00;;;;;;5024758;28;20041;-64
2023/07/02 09:11:28;;;;;;;5.00;2.08;;;21.20;54.10;;;;;;5022892;28;20025;-64
2023/07/02 09:13:58;;;;;;;3.83;1.88;;;21.20;53.60;;;;;;5025893;28;20029;-64
2023/07/02 09:16:31;;;;;;;4.65;1.10;;;21.10;53.00;;;;;;5002855;28;20421;-64
2023/07/02 09:19:04;;;;;;;4.07;1.55;;;21.00;53.70;;;;;;5025185;28;20037;-62
2023/07/02 09:21:47;;;;;;;5.93;1.85;;;20.80;52.90;;;;;;5026321;28;20017;-63
2023/07/02 09:24:18;;;;;;;6.95;1.80;;;20.60;53.80;;;;;;5026840;28;20394;-62
2023/07/02 09:26:53;;;;;;;4.53;1.92;;;20.50;54.30;;;;;;5027555;28;20112;-63
2023/07/02 09:29:26;;;;;;;5.07;1.95;;;20.70;54.80;;;;;;5026480;28;20076;-70
2023/07/02 09:31:52;;;;;;;4.38;1.52;;;21.00;53.40;;;;;;5027216;28;20031;-69
2023/07/02 09:34:18;;;;;;;2.25;1.00;;;21.30;52.50;;;;;;5026044;22;20051;-90
2023/07/02 09:36:44;;;;;;;2.78;1.73;;;21.40;52.30;;;;;;5027252;28;20029;-89
2023/07/02 09:39:14;;;;;;;2.13;1.30;;;21.50;52.30;;;;;;5015498;28;20185;-89
2023/07/02 09:41:44;;;;;;;5.15;2.00;;;21.60;51.00;;;;;;5028389;28;20032;-89
2023/07/02 09:44:13;;;;;;;2.20;1.40;;;21.70;50.20;;;;;;5017733;28;20021;-86
2023/07/02 09:46:45;;;;;;;2.35;1.65;;;21.80;49.60;;;;;;5022998;28;20104;-87
2023/07/02 09:49:16;;;;;;;2.70;1.25;;;21.80;46.80;;;;;;5029238;28;20017;-87
2023/07/02 09:51:43;;;;;;;2.97;1.07;;;21.70;47.60;;;;;;5026209;28;20028;-86
2023/07/02 09:54:10;;;;;;;2.75;1.55;;;21.70;46.70;;;;;;5008286;28;20033;-90
2023/07/02 09:56:35;;;;;;;3.38;1.40;;;21.80;46.70;;;;;;5013762;28;20041;-90
2023/07/02 09:59:01;;;;;;;1.80;1.02;;;21.80;47.00;;;;;;5008335;28;20021;-91
2023/07/02 10:01:27;;;;;;;5.90;1.70;;;21.90;47.20;;;;;;5011539;28;20092;-90
2023/07/02 10:03:53;;;;;;;2.30;1.40;;;22.10;45.80;;;;;;5026494;28;20038;-89
2023/07/02 10:06:19;;;;;;;1.92;1.23;;;22.10;46.20;;;;;;5009073;28;20503;-88
2023/07/02 10:08:57;;;;;;;3.88;1.25;;;22.30;47.00;;;;;;5015259;28;20037;-87
2023/07/02 10:11:35;;;;;;;1.67;1.20;;;22.50;46.60;;;;;;5030490;28;20036;-87
2023/07/02 10:14:03;;;;;;;1.88;0.93;;;22.70;46.70;;;;;;5030379;28;20024;-87
2023/07/02 10:16:32;;;;;;;2.22;1.10;;;22.90;46.00;;;;;;5024638;28;20060;-90
2023/07/02 10:19:11;;;;;;;1.67;0.98;;;22.80;46.50;;;;;;5046562;28;20429;-87
2023/07/02 10:21:37;;;;;;;8.70;1.58;;;22.80;46.00;;;;;;5008018;28;20034;-87
2023/07/02 10:24:17;;;;;;;2.60;1.33;;;22.90;46.20;;;;;;5018514;28;21145;-87
2023/07/02 10:26:55;;;;;;;2.13;1.45;;;23.10;45.80;;;;;;5016465;28;20029;-91
2023/07/02 10:29:24;;;;;;;2.42;1.10;;;23.20;45.40;;;;;;5027515;28;20061;-89
2023/07/02 10:32:00;;;;;;;4.00;1.35;;;23.30;45.10;;;;;;5018432;28;20041;-92
2023/07/02 10:34:38;;;;;;;2.25;1.13;;;23.20;45.60;;;;;;5025405;28;20073;-90
2023/07/02 10:37:05;;;;;;;2.20;1.20;;;23.00;45.70;;;;;;5004143;28;20083;-92
2023/07/02 10:39:31;;;;;;;1.52;1.00;;;22.90;45.50;;;;;;5020239;28;20087;-89
2023/07/02 10:42:09;;;;;;;4.82;1.48;;;22.90;45.90;;;;;;5028721;28;20429;-90
2023/07/02 10:44:51;;;;;;;1.75;1.05;;;23.00;45.70;;;;;;5027529;28;20092;-91
2023/07/02 10:47:16;;;;;;;3.83;1.42;;;23.20;44.60;;;;;;5045576;28;20026;-89
2023/07/02 10:49:45;;;;;;;7.78;1.60;;;23.20;44.40;;;;;;5025850;28;20036;-88
2023/07/02 10:52:11;;;;;;;3.20;1.00;;;23.10;43.70;;;;;;5006517;28;20482;-90
2023/07/02 10:54:47;;;;;;;2.33;1.15;;;23.00;43.50;;;;;;4999409;28;20110;-91
2023/07/02 10:57:22;;;;;;;3.95;1.05;;;22.90;43.70;;;;;;5044771;28;20040;-92
2023/07/02 10:59:48;;;;;;;3.70;1.58;;;22.60;43.90;;;;;;5011023;28;20022;-90
2023/07/02 11:02:17;;;;;;;1.92;1.30;;;22.50;44.80;;;;;;5004809;28;20053;-91
2023/07/02 11:04:43;;;;;;;1.70;1.25;;;22.40;44.20;;;;;;5021989;28;20115;-88
2023/07/02 11:07:30;;;;;;;2.15;0.90;;;22.40;44.00;;;;;;5003472;28;20160;-91
2023/07/02 11:09:56;;;;;;;3.03;1.15;;;22.40;43.70;;;;;;5022737;28;20034;-90
2023/07/02 11:12:31;;;;;;;2.95;1.38;;;22.60;44.40;;;;;;5013808;28;20025;-88
2023/07/02 11:15:19;;;;;;;2.25;1.10;;;22.70;43.10;;;;;;5022775;28;20038;-87
2023/07/02 11:17:45;;;;;;;3.05;0.75;;;22.60;43.50;;;;;;5024834;28;20025;-88
2023/07/02 11:20:13;;;;;;;2.60;1.50;;;22.40;44.20;;;;;;5027716;28;20151;-90
2023/07/02 11:22:41;;;;;;;6.55;1.25;;;22.50;44.20;;;;;;5017658;28;20389;-91
2023/07/02 11:25:16;;;;;;;3.13;1.50;;;22.80;44.10;;;;;;5015780;28;20075;-88
2023/07/02 11:27:42;;;;;;;2.38;1.67;;;22.90;44.00;;;;;;5025930;28;20033;-87
2023/07/02 11:30:08;;;;;;;2.72;1.08;;;22.90;43.90;;;;;;5027701;28;20021;-88
2023/07/02 11:32:51;;;;;;;2.40;1.20;;;22.90;43.00;;;;;;5000312;28;20427;-88
2023/07/02 11:35:18;;;;;;;1.13;1.02;;;22.90;42.60;;;;;;5024105;28;20042;-88
2023/07/02 11:37:44;;;;;;;2.63;1.30;;;22.90;41.90;;;;;;5024560;28;20037;-91
2023/07/02 11:40:14;;;;;;;2.10;1.02;;;23.00;41.90;;;;;;5028490;28;20017;-90
2023/07/02 11:42:40;;;;;;;2.33;1.50;;;23.20;42.20;;;;;;5018425;28;20022;-92
2023/07/02 11:45:06;;;;;;;2.30;1.13;;;23.50;42.50;;;;;;5024392;28;20137;-90
2023/07/02 11:47:32;;;;;;;4.93;1.45;;;24.00;41.60;;;;;;5007174;28;20104;-91
2023/07/02 11:50:00;;;;;;;1.98;1.40;;;24.20;40.70;;;;;;5004925;28;20124;-88
2023/07/02 11:52:26;;;;;;;3.30;1.27;;;24.00;40.90;;;;;;5002721;28;20053;-88
2023/07/02 11:54:52;;;;;;;2.10;1.05;;;23.70;40.80;;;;;;5004697;28;20114;-90
2023/07/02 11:57:21;;;;;;;4.93;1.15;;;23.80;41.60;;;;;;5006210;28;20121;-87
2023/07/02 11:59:47;;;;;;;2.33;1.10;;;23.90;40.30;;;;;;5036945;28;20391;-87
2023/07/02 12:02:13;;;;;;;2.53;1.15;;;24.00;39.60;;;;;;5011880;28;20125;-91
2023/07/02 12:04:39;;;;;;;1.58;0.93;;;24.00;40.20;;;;;;5006921;28;20080;-91
2023/07/02 12:07:04;;;;;;;2.00;0.85;;;24.10;40.00;;;;;;5036719;28;20026;-91
2023/07/02 12:09:30;;;;;;;1.10;1.00;;;24.20;40.50;;;;;;5030542;28;20388;-88
2023/07/02 12:11:56;;;;;;;0.82;0.70;;;24.20;40.20;;;;;;5002940;28;20056;-88
2023/07/02 12:14:22;;;;;;;3.63;1.10;;;23.90;40.40;;;;;;5011125;28;20560;-87
2023/07/02 12:16:47;;;;;;;2.25;0.98;;;23.90;40.80;;;;;;5040725;28;20025;-91
2023/07/02 12:19:16;;;;;;;2.38;0.98;;;24.30;40.80;;;;;;5014887;28;20455;-91
2023/07/02 12:21:42;;;;;;;1.42;1.20;;;24.70;39.00;;;;;;5005827;28;20029;-87
2023/07/02 12:24:11;;;;;;;3.88;1.30;;;24.80;39.00;;;;;;4994659;28;20039;-88
2023/07/02 12:26:40;;;;;;;1.92;1.27;;;24.90;38.00;;;;;;5006468;28;20067;-91
2023/07/02 12:29:05;;;;;;;1.75;1.08;;;24.70;37.70;;;;;;5008694;28;20061;-87
2023/07/02 12:31:31;;;;;;;1.65;1.17;;;24.30;38.70;;;;;;5013750;28;20049;-87
2023/07/02 12:33:57;;;;;;;3.33;1.13;;;24.20;39.00;;;;;;5012271;28;20037;-87
2023/07/02 12:36:23;;;;;;;1.08;0.98;;;24.20;39.00;;;;;;5010798;28;20517;-87
2023/07/02 12:38:49;;;;;;;1.85;1.15;;;24.10;39.20;;;;;;5031047;28;20103;-87
2023/07/02 12:41:15;;;;;;;1.25;0.90;;;24.00;39.00;;;;;;5012815;28;20033;-91
2023/07/02 12:43:41;;;;;;;3.25;1.67;;;24.10;39.50;;;;;;5020346;28;20028;-91
2023/07/02 12:46:07;;;;;;;2.03;1.30;;;24.30;37.80;;;;;;5020828;28;20025;-91
2023/07/02 12:48:33;;;;;;;2.78;1.13;;;24.40;38.30;;;;;;5007008;28;20045;-91